sensor_id;sensor_type;location;lat;lon;timestamp;P1;durP1;ratioP1;P2;durP2;ratioP2
29402;SDS011;16382;59.942;30.472;2024-01-10T00:02:04;3.30;;;3.00;;
29402;SDS011;16382;59.942;30.472;2024-01-10T00:04:34;3.70;;;3.30;;
29402;SDS011;16382;59.942;30.472;2024-01-10T00:07:09;3.05;;;2.83;;
29402;SDS011;16382;59.942;30.472;2024-01-10T00:10:22;3.47;;;3.17;;
29402;SDS011;16382;59.942;30.472;2024-01-10T00:13:33;4.05;;;3.47;;
29402;SDS011;16382;59.942;30.472;2024-01-10T00:17:07;3.50;;;3.20;;
29402;SDS011;16382;59.942;30.472;2024-01-10T00:20:09;4.13;;;3.42;;
29402;SDS011;16382;59.942;30.472;2024-01-10T00:22:54;3.53;;;3.22;;
29402;SDS011;16382;59.942;30.472;2024-01-10T00:29:06;3.55;;;3.22;;
29402;SDS011;16382;59.942;30.472;2024-01-10T00:31:41;3.83;;;3.08;;
29402;SDS011;16382;59.942;30.472;2024-01-10T00:34:50;2.60;;;2.40;;
29402;SDS011;16382;59.942;30.472;2024-01-10T00:37:41;2.88;;;2.35;;
29402;SDS011;16382;59.942;30.472;2024-01-10T00:40:22;3.63;;;2.45;;
29402;SDS011;16382;59.942;30.472;2024-01-10T00:43:31;2.72;;;2.53;;
29402;SDS011;16382;59.942;30.472;2024-01-10T00:49:08;2.45;;;2.25;;
29402;SDS011;16382;59.942;30.472;2024-01-10T00:52:28;1.95;;;1.85;;
29402;SDS011;16382;59.942;30.472;2024-01-10T00:54:51;2.20;;;2.10;;
29402;SDS011;16382;59.942;30.472;2024-01-10T01:03:25;2.30;;;2.10;;
29402;SDS011;16382;59.942;30.472;2024-01-10T01:06:19;2.40;;;2.03;;
29402;SDS011;16382;59.942;30.472;2024-01-10T01:10:35;2.50;;;2.30;;
29402;SDS011;16382;59.942;30.472;2024-01-10T01:12:30;2.20;;;2.10;;
29402;SDS011;16382;59.942;30.472;2024-01-10T01:15:15;2.28;;;2.17;;
29402;SDS011;16382;59.942;30.472;2024-01-10T01:21:48;2.40;;;2.20;;
29402;SDS011;16382;59.942;30.472;2024-01-10T01:24:40;2.72;;;1.80;;
29402;SDS011;16382;59.942;30.472;2024-01-10T01:28:22;2.63;;;2.25;;
29402;SDS011;16382;59.942;30.472;2024-01-10T01:31:37;2.20;;;1.63;;
29402;SDS011;16382;59.942;30.472;2024-01-10T01:34:53;1.92;;;1.58;;
29402;SDS011;16382;59.942;30.472;2024-01-10T01:38:16;2.30;;;1.60;;
29402;SDS011;16382;59.942;30.472;2024-01-10T01:40:44;3.42;;;2.13;;
29402;SDS011;16382;59.942;30.472;2024-01-10T01:43:21;2.15;;;1.95;;
29402;SDS011;16382;59.942;30.472;2024-01-10T01:45:54;2.58;;;1.30;;
29402;SDS011;16382;59.942;30.472;2024-01-10T01:48:33;1.60;;;1.50;;
29402;SDS011;16382;59.942;30.472;2024-01-10T01:51:06;3.05;;;1.98;;
29402;SDS011;16382;59.942;30.472;2024-01-10T01:53:38;2.83;;;1.63;;
29402;SDS011;16382;59.942;30.472;2024-01-10T01:56:31;1.50;;;1.23;;
29402;SDS011;16382;59.942;30.472;2024-01-10T02:00:01;1.60;;;1.38;;
29402;SDS011;16382;59.942;30.472;2024-01-10T02:10:44;1.90;;;0.82;;
29402;SDS011;16382;59.942;30.472;2024-01-10T02:14:35;1.48;;;1.33;;
29402;SDS011;16382;59.942;30.472;2024-01-10T02:18:07;1.17;;;1.10;;
29402;SDS011;16382;59.942;30.472;2024-01-10T02:21:13;1.27;;;1.10;;
29402;SDS011;16382;59.942;30.472;2024-01-10T02:27:13;1.30;;;1.10;;
29402;SDS011;16382;59.942;30.472;2024-01-10T02:30:41;1.00;;;0.95;;
29402;SDS011;16382;59.942;30.472;2024-01-10T02:38:16;1.13;;;0.93;;
29402;SDS011;16382;59.942;30.472;2024-01-10T02:40:45;1.30;;;0.98;;
29402;SDS011;16382;59.942;30.472;2024-01-10T02:43:47;3.20;;;1.17;;
29402;SDS011;16382;59.942;30.472;2024-01-10T02:46:58;3.15;;;1.10;;
29402;SDS011;16382;59.942;30.472;2024-01-10T02:49:39;1.27;;;0.73;;
29402;SDS011;16382;59.942;30.472;2024-01-10T02:52:46;1.05;;;0.95;;
29402;SDS011;16382;59.942;30.472;2024-01-10T02:55:14;0.88;;;0.88;;
29402;SDS011;16382;59.942;30.472;2024-01-10T02:58:05;1.98;;;1.00;;
29402;SDS011;16382;59.942;30.472;2024-01-10T03:01:07;0.98;;;0.90;;
29402;SDS011;16382;59.942;30.472;2024-01-10T03:03:43;1.75;;;0.77;;
29402;SDS011;16382;59.942;30.472;2024-01-10T03:06:28;1.15;;;1.05;;
29402;SDS011;16382;59.942;30.472;2024-01-10T03:09:38;1.55;;;1.20;;
29402;SDS011;16382;59.942;30.472;2024-01-10T03:12:28;1.38;;;1.00;;
29402;SDS011;16382;59.942;30.472;2024-01-10T03:15:37;1.25;;;1.13;;
29402;SDS011;16382;59.942;30.472;2024-01-10T03:18:40;1.85;;;1.20;;
29402;SDS011;16382;59.942;30.472;2024-01-10T03:21:20;2.33;;;1.40;;
29402;SDS011;16382;59.942;30.472;2024-01-10T03:24:14;1.75;;;1.17;;
29402;SDS011;16382;59.942;30.472;2024-01-10T03:26:57;1.88;;;1.20;;
29402;SDS011;16382;59.942;30.472;2024-01-10T03:29:37;1.35;;;1.25;;
29402;SDS011;16382;59.942;30.472;2024-01-10T03:32:20;1.92;;;1.40;;
29402;SDS011;16382;59.942;30.472;2024-01-10T03:34:51;1.88;;;1.33;;
29402;SDS011;16382;59.942;30.472;2024-01-10T03:37:24;2.55;;;1.50;;
29402;SDS011;16382;59.942;30.472;2024-01-10T03:40:21;1.33;;;1.17;;
29402;SDS011;16382;59.942;30.472;2024-01-10T03:42:57;1.52;;;1.42;;
29402;SDS011;16382;59.942;30.472;2024-01-10T03:45:47;3.25;;;1.48;;
29402;SDS011;16382;59.942;30.472;2024-01-10T03:48:32;3.60;;;1.90;;
29402;SDS011;16382;59.942;30.472;2024-01-10T03:51:16;1.65;;;1.40;;
29402;SDS011;16382;59.942;30.472;2024-01-10T03:54:05;2.95;;;2.10;;
29402;SDS011;16382;59.942;30.472;2024-01-10T03:58:47;2.33;;;1.80;;
29402;SDS011;16382;59.942;30.472;2024-01-10T04:01:35;6.38;;;2.53;;
29402;SDS011;16382;59.942;30.472;2024-01-10T04:05:12;1.98;;;1.70;;
29402;SDS011;16382;59.942;30.472;2024-01-10T04:08:06;3.55;;;2.20;;
29402;SDS011;16382;59.942;30.472;2024-01-10T04:10:39;2.85;;;2.10;;
29402;SDS011;16382;59.942;30.472;2024-01-10T04:13:14;2.80;;;2.00;;
29402;SDS011;16382;59.942;30.472;2024-01-10T04:15:52;2.13;;;1.60;;
29402;SDS011;16382;59.942;30.472;2024-01-10T04:18:29;6.65;;;2.53;;
29402;SDS011;16382;59.942;30.472;2024-01-10T04:21:03;2.90;;;2.03;;
29402;SDS011;16382;59.942;30.472;2024-01-10T04:27:19;4.15;;;1.98;;
29402;SDS011;16382;59.942;30.472;2024-01-10T04:30:41;4.72;;;2.58;;
29402;SDS011;16382;59.942;30.472;2024-01-10T04:41:20;2.55;;;2.08;;
29402;SDS011;16382;59.942;30.472;2024-01-10T04:45:29;2.67;;;1.98;;
29402;SDS011;16382;59.942;30.472;2024-01-10T04:48:53;4.20;;;2.08;;
29402;SDS011;16382;59.942;30.472;2024-01-10T04:52:51;3.40;;;2.47;;
29402;SDS011;16382;59.942;30.472;2024-01-10T05:00:16;2.22;;;2.03;;
29402;SDS011;16382;59.942;30.472;2024-01-10T05:02:48;2.55;;;2.33;;
29402;SDS011;16382;59.942;30.472;2024-01-10T05:05:21;4.90;;;2.20;;
29402;SDS011;16382;59.942;30.472;2024-01-10T05:08:00;3.33;;;2.03;;
29402;SDS011;16382;59.942;30.472;2024-01-10T05:10:28;4.55;;;3.00;;
29402;SDS011;16382;59.942;30.472;2024-01-10T05:16:57;3.20;;;2.50;;
29402;SDS011;16382;59.942;30.472;2024-01-10T05:19:51;2.83;;;2.30;;
29402;SDS011;16382;59.942;30.472;2024-01-10T05:22:23;3.80;;;2.55;;
29402;SDS011;16382;59.942;30.472;2024-01-10T05:24:55;6.10;;;3.65;;
29402;SDS011;16382;59.942;30.472;2024-01-10T05:27:33;4.53;;;2.50;;
29402;SDS011;16382;59.942;30.472;2024-01-10T05:30:15;4.70;;;2.20;;
29402;SDS011;16382;59.942;30.472;2024-01-10T05:33:00;3.28;;;2.60;;
29402;SDS011;16382;59.942;30.472;2024-01-10T05:36:08;5.90;;;3.40;;
29402;SDS011;16382;59.942;30.472;2024-01-10T05:39:00;7.35;;;3.53;;
29402;SDS011;16382;59.942;30.472;2024-01-10T05:42:37;3.30;;;2.67;;
29402;SDS011;16382;59.942;30.472;2024-01-10T05:45:17;4.93;;;3.88;;
29402;SDS011;16382;59.942;30.472;2024-01-10T05:48:19;5.55;;;3.65;;
29402;SDS011;16382;59.942;30.472;2024-01-10T05:51:01;8.18;;;3.13;;
29402;SDS011;16382;59.942;30.472;2024-01-10T05:53:39;3.15;;;2.85;;
29402;SDS011;16382;59.942;30.472;2024-01-10T05:57:18;5.07;;;2.40;;
29402;SDS011;16382;59.942;30.472;2024-01-10T06:01:00;2.83;;;2.25;;
29402;SDS011;16382;59.942;30.472;2024-01-10T06:04:38;3.92;;;2.65;;
29402;SDS011;16382;59.942;30.472;2024-01-10T06:07:48;5.78;;;3.45;;
29402;SDS011;16382;59.942;30.472;2024-01-10T06:10:40;5.63;;;2.83;;
29402;SDS011;16382;59.942;30.472;2024-01-10T06:13:33;5.72;;;3.47;;
29402;SDS011;16382;59.942;30.472;2024-01-10T06:16:08;4.30;;;3.40;;
29402;SDS011;16382;59.942;30.472;2024-01-10T06:18:42;4.97;;;3.50;;
29402;SDS011;16382;59.942;30.472;2024-01-10T06:21:14;19.85;;;7.40;;
29402;SDS011;16382;59.942;30.472;2024-01-10T06:24:04;5.70;;;2.78;;
29402;SDS011;16382;59.942;30.472;2024-01-10T06:26:45;5.45;;;3.08;;
29402;SDS011;16382;59.942;30.472;2024-01-10T06:29:31;9.63;;;6.68;;
29402;SDS011;16382;59.942;30.472;2024-01-10T06:34:47;8.32;;;4.28;;
29402;SDS011;16382;59.942;30.472;2024-01-10T06:38:15;5.40;;;4.20;;
29402;SDS011;16382;59.942;30.472;2024-01-10T06:41:40;6.13;;;4.00;;
29402;SDS011;16382;59.942;30.472;2024-01-10T06:45:39;7.57;;;3.60;;
29402;SDS011;16382;59.942;30.472;2024-01-10T06:57:42;8.90;;;4.07;;
29402;SDS011;16382;59.942;30.472;2024-01-10T07:01:11;5.00;;;3.40;;
29402;SDS011;16382;59.942;30.472;2024-01-10T07:04:29;6.05;;;3.55;;
29402;SDS011;16382;59.942;30.472;2024-01-10T07:15:03;10.57;;;6.32;;
29402;SDS011;16382;59.942;30.472;2024-01-10T07:17:35;6.68;;;4.85;;
29402;SDS011;16382;59.942;30.472;2024-01-10T07:20:14;10.32;;;5.22;;
29402;SDS011;16382;59.942;30.472;2024-01-10T07:23:43;12.55;;;5.20;;
29402;SDS011;16382;59.942;30.472;2024-01-10T07:26:14;8.30;;;4.88;;
29402;SDS011;16382;59.942;30.472;2024-01-10T07:32:49;9.30;;;5.82;;
29402;SDS011;16382;59.942;30.472;2024-01-10T07:35:50;12.13;;;5.53;;
29402;SDS011;16382;59.942;30.472;2024-01-10T07:39:21;9.85;;;5.03;;
29402;SDS011;16382;59.942;30.472;2024-01-10T07:42:17;11.77;;;5.60;;
29402;SDS011;16382;59.942;30.472;2024-01-10T07:44:49;14.07;;;6.70;;
29402;SDS011;16382;59.942;30.472;2024-01-10T07:47:20;8.05;;;5.57;;
29402;SDS011;16382;59.942;30.472;2024-01-10T07:49:50;15.43;;;6.40;;
29402;SDS011;16382;59.942;30.472;2024-01-10T07:52:28;11.00;;;6.07;;
29402;SDS011;16382;59.942;30.472;2024-01-10T07:54:56;18.48;;;7.55;;
29402;SDS011;16382;59.942;30.472;2024-01-10T07:57:34;14.13;;;8.13;;
29402;SDS011;16382;59.942;30.472;2024-01-10T08:00:05;18.08;;;7.82;;
29402;SDS011;16382;59.942;30.472;2024-01-10T08:02:39;15.32;;;8.18;;
29402;SDS011;16382;59.942;30.472;2024-01-10T08:05:59;17.38;;;10.65;;
29402;SDS011;16382;59.942;30.472;2024-01-10T08:12:21;24.23;;;10.88;;
29402;SDS011;16382;59.942;30.472;2024-01-10T08:18:36;20.35;;;9.93;;
29402;SDS011;16382;59.942;30.472;2024-01-10T08:21:05;22.73;;;12.45;;
29402;SDS011;16382;59.942;30.472;2024-01-10T08:23:33;22.75;;;10.85;;
29402;SDS011;16382;59.942;30.472;2024-01-10T08:26:40;19.20;;;10.93;;
29402;SDS011;16382;59.942;30.472;2024-01-10T08:29:54;15.73;;;10.13;;
29402;SDS011;16382;59.942;30.472;2024-01-10T08:36:18;13.98;;;8.20;;
29402;SDS011;16382;59.942;30.472;2024-01-10T08:38:58;12.60;;;8.52;;
29402;SDS011;16382;59.942;30.472;2024-01-10T08:42:11;19.83;;;8.95;;
29402;SDS011;16382;59.942;30.472;2024-01-10T08:45:45;11.55;;;7.25;;
29402;SDS011;16382;59.942;30.472;2024-01-10T08:49:26;11.93;;;6.80;;
29402;SDS011;16382;59.942;30.472;2024-01-10T08:52:50;13.25;;;7.05;;
29402;SDS011;16382;59.942;30.472;2024-01-10T08:57:55;11.32;;;6.47;;
29402;SDS011;16382;59.942;30.472;2024-01-10T08:59:21;12.23;;;6.78;;
29402;SDS011;16382;59.942;30.472;2024-01-10T09:02:28;11.32;;;6.13;;
29402;SDS011;16382;59.942;30.472;2024-01-10T09:05:46;12.88;;;6.70;;
29402;SDS011;16382;59.942;30.472;2024-01-10T09:48:59;14.77;;;6.97;;
29402;SDS011;16382;59.942;30.472;2024-01-10T09:55:37;14.88;;;8.02;;
29402;SDS011;16382;59.942;30.472;2024-01-10T09:58:26;21.48;;;8.73;;
29402;SDS011;16382;59.942;30.472;2024-01-10T10:01:05;14.43;;;8.70;;
29402;SDS011;16382;59.942;30.472;2024-01-10T10:03:37;14.80;;;9.10;;
29402;SDS011;16382;59.942;30.472;2024-01-10T10:06:14;19.17;;;9.43;;
29402;SDS011;16382;59.942;30.472;2024-01-10T10:09:44;16.83;;;9.27;;
29402;SDS011;16382;59.942;30.472;2024-01-10T10:14:05;18.35;;;9.70;;
29402;SDS011;16382;59.942;30.472;2024-01-10T10:16:57;22.80;;;9.82;;
29402;SDS011;16382;59.942;30.472;2024-01-10T10:20:24;17.80;;;8.30;;
29402;SDS011;16382;59.942;30.472;2024-01-10T10:23:57;18.73;;;10.35;;
29402;SDS011;16382;59.942;30.472;2024-01-10T10:27:07;16.77;;;10.70;;
29402;SDS011;16382;59.942;30.472;2024-01-10T10:30:11;14.10;;;8.90;;
29402;SDS011;16382;59.942;30.472;2024-01-10T10:38:26;16.92;;;9.45;;
29402;SDS011;16382;59.942;30.472;2024-01-10T10:43:18;20.48;;;10.02;;
29402;SDS011;16382;59.942;30.472;2024-01-10T10:46:43;21.58;;;10.93;;
29402;SDS011;16382;59.942;30.472;2024-01-10T10:49:47;23.80;;;12.02;;
29402;SDS011;16382;59.942;30.472;2024-01-10T10:53:11;24.27;;;11.45;;
29402;SDS011;16382;59.942;30.472;2024-01-10T10:56:49;22.77;;;12.05;;
29402;SDS011;16382;59.942;30.472;2024-01-10T10:59:34;22.02;;;11.77;;
29402;SDS011;16382;59.942;30.472;2024-01-10T11:02:18;23.95;;;11.82;;
29402;SDS011;16382;59.942;30.472;2024-01-10T11:05:03;21.70;;;11.07;;
29402;SDS011;16382;59.942;30.472;2024-01-10T11:07:48;25.05;;;11.02;;
29402;SDS011;16382;59.942;30.472;2024-01-10T11:15:02;20.58;;;10.65;;
29402;SDS011;16382;59.942;30.472;2024-01-10T11:18:39;24.33;;;12.55;;
29402;SDS011;16382;59.942;30.472;2024-01-10T11:22:26;29.65;;;14.05;;
29402;SDS011;16382;59.942;30.472;2024-01-10T11:30:06;36.53;;;16.30;;
29402;SDS011;16382;59.942;30.472;2024-01-10T11:33:32;31.55;;;15.05;;
29402;SDS011;16382;59.942;30.472;2024-01-10T11:41:14;37.23;;;16.63;;
29402;SDS011;16382;59.942;30.472;2024-01-10T11:58:22;46.83;;;21.65;;
29402;SDS011;16382;59.942;30.472;2024-01-10T12:07:03;36.60;;;16.58;;
29402;SDS011;16382;59.942;30.472;2024-01-10T12:08:41;63.45;;;25.10;;
29402;SDS011;16382;59.942;30.472;2024-01-10T12:11:17;43.78;;;20.15;;
29402;SDS011;16382;59.942;30.472;2024-01-10T12:13:46;38.85;;;20.05;;
29402;SDS011;16382;59.942;30.472;2024-01-10T12:16:14;47.90;;;21.63;;
29402;SDS011;16382;59.942;30.472;2024-01-10T12:18:43;50.95;;;21.38;;
29402;SDS011;16382;59.942;30.472;2024-01-10T12:21:21;35.35;;;18.90;;
29402;SDS011;16382;59.942;30.472;2024-01-10T12:23:48;51.55;;;23.00;;
29402;SDS011;16382;59.942;30.472;2024-01-10T12:26:22;55.17;;;23.90;;
29402;SDS011;16382;59.942;30.472;2024-01-10T12:28:56;48.00;;;23.40;;
29402;SDS011;16382;59.942;30.472;2024-01-10T12:31:33;52.00;;;24.10;;
29402;SDS011;16382;59.942;30.472;2024-01-10T12:34:37;45.65;;;21.88;;
29402;SDS011;16382;59.942;30.472;2024-01-10T12:38:07;45.75;;;19.13;;
29402;SDS011;16382;59.942;30.472;2024-01-10T12:41:12;37.90;;;19.60;;
29402;SDS011;16382;59.942;30.472;2024-01-10T12:44:45;42.88;;;22.60;;
29402;SDS011;16382;59.942;30.472;2024-01-10T12:47:38;44.60;;;22.17;;
29402;SDS011;16382;59.942;30.472;2024-01-10T12:50:15;36.10;;;18.92;;
29402;SDS011;16382;59.942;30.472;2024-01-10T12:53:03;45.17;;;20.20;;
29402;SDS011;16382;59.942;30.472;2024-01-10T12:55:36;46.03;;;21.88;;
29402;SDS011;16382;59.942;30.472;2024-01-10T12:58:09;40.13;;;18.88;;
29402;SDS011;16382;59.942;30.472;2024-01-10T13:00:38;42.63;;;18.98;;
29402;SDS011;16382;59.942;30.472;2024-01-10T13:03:07;31.20;;;18.08;;
29402;SDS011;16382;59.942;30.472;2024-01-10T13:05:35;37.70;;;18.85;;
29402;SDS011;16382;59.942;30.472;2024-01-10T13:08:08;26.38;;;14.02;;
29402;SDS011;16382;59.942;30.472;2024-01-10T13:10:52;33.63;;;18.23;;
29402;SDS011;16382;59.942;30.472;2024-01-10T13:13:38;38.42;;;18.80;;
29402;SDS011;16382;59.942;30.472;2024-01-10T13:16:14;34.22;;;17.70;;
29402;SDS011;16382;59.942;30.472;2024-01-10T13:19:30;36.58;;;17.70;;
29402;SDS011;16382;59.942;30.472;2024-01-10T13:22:02;31.52;;;17.60;;
29402;SDS011;16382;59.942;30.472;2024-01-10T13:24:30;30.90;;;17.63;;
29402;SDS011;16382;59.942;30.472;2024-01-10T13:26:57;40.92;;;18.77;;
29402;SDS011;16382;59.942;30.472;2024-01-10T13:29:27;40.13;;;20.05;;
29402;SDS011;16382;59.942;30.472;2024-01-10T13:31:59;47.30;;;21.70;;
29402;SDS011;16382;59.942;30.472;2024-01-10T13:34:27;54.63;;;22.25;;
29402;SDS011;16382;59.942;30.472;2024-01-10T13:36:55;60.20;;;26.77;;
29402;SDS011;16382;59.942;30.472;2024-01-10T13:39:24;60.47;;;26.23;;
29402;SDS011;16382;59.942;30.472;2024-01-10T13:41:51;65.43;;;26.98;;
29402;SDS011;16382;59.942;30.472;2024-01-10T13:44:19;59.58;;;25.42;;
29402;SDS011;16382;59.942;30.472;2024-01-10T13:46:47;55.13;;;24.08;;
29402;SDS011;16382;59.942;30.472;2024-01-10T13:49:17;56.92;;;24.55;;
29402;SDS011;16382;59.942;30.472;2024-01-10T13:51:45;64.38;;;23.20;;
29402;SDS011;16382;59.942;30.472;2024-01-10T13:54:12;76.63;;;27.17;;
29402;SDS011;16382;59.942;30.472;2024-01-10T13:56:40;65.53;;;24.98;;
29402;SDS011;16382;59.942;30.472;2024-01-10T13:59:08;64.72;;;23.48;;
29402;SDS011;16382;59.942;30.472;2024-01-10T14:01:36;56.00;;;20.25;;
29402;SDS011;16382;59.942;30.472;2024-01-10T14:04:06;39.00;;;18.45;;
29402;SDS011;16382;59.942;30.472;2024-01-10T14:06:37;43.30;;;18.58;;
29402;SDS011;16382;59.942;30.472;2024-01-10T14:09:09;34.42;;;14.70;;
29402;SDS011;16382;59.942;30.472;2024-01-10T14:11:37;34.20;;;16.50;;
29402;SDS011;16382;59.942;30.472;2024-01-10T14:14:09;24.13;;;11.43;;
29402;SDS011;16382;59.942;30.472;2024-01-10T14:16:38;24.83;;;12.18;;
29402;SDS011;16382;59.942;30.472;2024-01-10T14:19:13;19.55;;;10.13;;
29402;SDS011;16382;59.942;30.472;2024-01-10T14:21:46;13.73;;;8.68;;
29402;SDS011;16382;59.942;30.472;2024-01-10T14:24:14;13.60;;;8.50;;
29402;SDS011;16382;59.942;30.472;2024-01-10T14:26:45;13.00;;;7.75;;
29402;SDS011;16382;59.942;30.472;2024-01-10T14:29:12;8.50;;;5.35;;
29402;SDS011;16382;59.942;30.472;2024-01-10T14:31:43;9.32;;;5.95;;
29402;SDS011;16382;59.942;30.472;2024-01-10T14:34:11;11.20;;;6.78;;
29402;SDS011;16382;59.942;30.472;2024-01-10T14:36:47;12.90;;;6.60;;
29402;SDS011;16382;59.942;30.472;2024-01-10T14:39:15;7.68;;;4.82;;
29402;SDS011;16382;59.942;30.472;2024-01-10T14:41:46;6.00;;;4.95;;
29402;SDS011;16382;59.942;30.472;2024-01-10T14:44:15;7.38;;;4.57;;
29402;SDS011;16382;59.942;30.472;2024-01-10T14:46:46;6.75;;;4.07;;
29402;SDS011;16382;59.942;30.472;2024-01-10T14:49:14;7.35;;;3.45;;
29402;SDS011;16382;59.942;30.472;2024-01-10T14:51:51;6.57;;;4.05;;
29402;SDS011;16382;59.942;30.472;2024-01-10T14:54:23;5.80;;;3.03;;
29402;SDS011;16382;59.942;30.472;2024-01-10T14:56:50;4.03;;;3.55;;
29402;SDS011;16382;59.942;30.472;2024-01-10T14:59:27;6.68;;;4.05;;
29402;SDS011;16382;59.942;30.472;2024-01-10T15:01:56;5.93;;;3.40;;
29402;SDS011;16382;59.942;30.472;2024-01-10T15:04:24;4.47;;;3.67;;
29402;SDS011;16382;59.942;30.472;2024-01-10T15:06:56;4.57;;;3.35;;
29402;SDS011;16382;59.942;30.472;2024-01-10T15:09:27;8.23;;;3.35;;
29402;SDS011;16382;59.942;30.472;2024-01-10T15:12:00;5.68;;;3.35;;
29402;SDS011;16382;59.942;30.472;2024-01-10T15:14:29;4.50;;;3.83;;
29402;SDS011;16382;59.942;30.472;2024-01-10T15:17:24;7.55;;;2.70;;
29402;SDS011;16382;59.942;30.472;2024-01-10T15:20:05;5.72;;;2.28;;
29402;SDS011;16382;59.942;30.472;2024-01-10T15:22:47;3.08;;;2.30;;
29402;SDS011;16382;59.942;30.472;2024-01-10T15:25:22;4.90;;;3.35;;
29402;SDS011;16382;59.942;30.472;2024-01-10T15:27:59;6.60;;;3.33;;
29402;SDS011;16382;59.942;30.472;2024-01-10T15:30:34;4.85;;;2.78;;
29402;SDS011;16382;59.942;30.472;2024-01-10T15:33:04;4.22;;;3.20;;
29402;SDS011;16382;59.942;30.472;2024-01-10T15:35:58;4.05;;;3.15;;
29402;SDS011;16382;59.942;30.472;2024-01-10T15:38:32;3.05;;;2.75;;
29402;SDS011;16382;59.942;30.472;2024-01-10T15:40:59;3.72;;;2.70;;
29402;SDS011;16382;59.942;30.472;2024-01-10T15:43:37;7.57;;;3.50;;
29402;SDS011;16382;59.942;30.472;2024-01-10T15:46:17;5.28;;;3.67;;
29402;SDS011;16382;59.942;30.472;2024-01-10T15:48:46;3.63;;;3.28;;
29402;SDS011;16382;59.942;30.472;2024-01-10T15:51:14;4.40;;;3.63;;
29402;SDS011;16382;59.942;30.472;2024-01-10T15:53:43;6.95;;;4.32;;
29402;SDS011;16382;59.942;30.472;2024-01-10T15:56:10;4.05;;;2.67;;
29402;SDS011;16382;59.942;30.472;2024-01-10T15:58:41;6.53;;;3.53;;
29402;SDS011;16382;59.942;30.472;2024-01-10T16:01:18;6.53;;;4.45;;
29402;SDS011;16382;59.942;30.472;2024-01-10T16:03:46;8.23;;;5.28;;
29402;SDS011;16382;59.942;30.472;2024-01-10T16:06:14;6.18;;;3.97;;
29402;SDS011;16382;59.942;30.472;2024-01-10T16:08:47;7.75;;;5.75;;
29402;SDS011;16382;59.942;30.472;2024-01-10T16:11:18;10.85;;;6.25;;
29402;SDS011;16382;59.942;30.472;2024-01-10T16:13:45;16.38;;;6.78;;
29402;SDS011;16382;59.942;30.472;2024-01-10T16:16:21;12.07;;;6.15;;
29402;SDS011;16382;59.942;30.472;2024-01-10T16:18:52;11.27;;;6.43;;
29402;SDS011;16382;59.942;30.472;2024-01-10T16:21:35;17.13;;;7.35;;
29402;SDS011;16382;59.942;30.472;2024-01-10T16:24:13;11.20;;;6.93;;
29402;SDS011;16382;59.942;30.472;2024-01-10T16:26:42;12.85;;;7.38;;
29402;SDS011;16382;59.942;30.472;2024-01-10T16:29:09;15.85;;;7.90;;
29402;SDS011;16382;59.942;30.472;2024-01-10T16:31:38;11.02;;;6.20;;
29402;SDS011;16382;59.942;30.472;2024-01-10T16:34:05;15.68;;;8.07;;
29402;SDS011;16382;59.942;30.472;2024-01-10T16:36:33;11.05;;;7.07;;
29402;SDS011;16382;59.942;30.472;2024-01-10T16:39:06;7.97;;;4.82;;
29402;SDS011;16382;59.942;30.472;2024-01-10T16:46:03;11.95;;;7.07;;
29402;SDS011;16382;59.942;30.472;2024-01-10T16:48:40;20.88;;;8.07;;
29402;SDS011;16382;59.942;30.472;2024-01-10T16:51:10;15.75;;;7.70;;
29402;SDS011;16382;59.942;30.472;2024-01-10T16:54:39;16.23;;;8.40;;
29402;SDS011;16382;59.942;30.472;2024-01-10T16:57:41;17.98;;;7.68;;
29402;SDS011;16382;59.942;30.472;2024-01-10T17:00:50;18.45;;;7.72;;
29402;SDS011;16382;59.942;30.472;2024-01-10T17:04:00;18.95;;;8.50;;
29402;SDS011;16382;59.942;30.472;2024-01-10T17:07:33;15.52;;;8.52;;
29402;SDS011;16382;59.942;30.472;2024-01-10T17:10:49;20.05;;;9.38;;
29402;SDS011;16382;59.942;30.472;2024-01-10T17:36:29;19.58;;;9.95;;
29402;SDS011;16382;59.942;30.472;2024-01-10T18:12:43;10.80;;;7.13;;
29402;SDS011;16382;59.942;30.472;2024-01-10T18:23:37;40.60;;;9.98;;
29402;SDS011;16382;59.942;30.472;2024-01-10T19:44:03;5.65;;;2.20;;
29402;SDS011;16382;59.942;30.472;2024-01-10T19:47:59;3.53;;;2.17;;
29402;SDS011;16382;59.942;30.472;2024-01-10T19:51:01;2.10;;;2.00;;
29402;SDS011;16382;59.942;30.472;2024-01-10T20:01:57;2.03;;;1.80;;
29402;SDS011;16382;59.942;30.472;2024-01-10T20:04:54;3.30;;;1.85;;
29402;SDS011;16382;59.942;30.472;2024-01-10T20:08:06;3.28;;;1.25;;
29402;SDS011;16382;59.942;30.472;2024-01-10T20:11:41;4.80;;;2.08;;
29402;SDS011;16382;59.942;30.472;2024-01-10T20:15:53;3.75;;;1.65;;
29402;SDS011;16382;59.942;30.472;2024-01-10T20:18:31;2.03;;;1.92;;
29402;SDS011;16382;59.942;30.472;2024-01-10T20:21:41;2.45;;;1.48;;
29402;SDS011;16382;59.942;30.472;2024-01-10T20:25:33;2.00;;;1.20;;
29402;SDS011;16382;59.942;30.472;2024-01-10T20:32:33;4.22;;;1.50;;
29402;SDS011;16382;59.942;30.472;2024-01-10T20:39:58;3.30;;;1.45;;
29402;SDS011;16382;59.942;30.472;2024-01-10T20:50:36;4.00;;;1.92;;
29402;SDS011;16382;59.942;30.472;2024-01-10T20:53:54;1.83;;;1.58;;
29402;SDS011;16382;59.942;30.472;2024-01-10T20:56:53;4.55;;;1.70;;
29402;SDS011;16382;59.942;30.472;2024-01-10T21:00:05;1.40;;;1.15;;
29402;SDS011;16382;59.942;30.472;2024-01-10T21:03:16;1.25;;;0.90;;
29402;SDS011;16382;59.942;30.472;2024-01-10T21:07:35;3.58;;;1.42;;
29402;SDS011;16382;59.942;30.472;2024-01-10T21:17:17;2.60;;;1.20;;
29402;SDS011;16382;59.942;30.472;2024-01-10T21:21:35;3.55;;;1.55;;
29402;SDS011;16382;59.942;30.472;2024-01-10T21:31:51;1.65;;;0.80;;
29402;SDS011;16382;59.942;30.472;2024-01-10T21:35:38;1.92;;;0.82;;
29402;SDS011;16382;59.942;30.472;2024-01-10T21:41:25;1.38;;;0.90;;
29402;SDS011;16382;59.942;30.472;2024-01-10T21:43:03;4.38;;;1.02;;
29402;SDS011;16382;59.942;30.472;2024-01-10T21:46:45;2.53;;;0.98;;
29402;SDS011;16382;59.942;30.472;2024-01-10T21:49:48;1.45;;;1.08;;
29402;SDS011;16382;59.942;30.472;2024-01-10T22:02:15;2.17;;;0.90;;
29402;SDS011;16382;59.942;30.472;2024-01-10T22:04:21;1.40;;;1.00;;
29402;SDS011;16382;59.942;30.472;2024-01-10T22:07:25;3.42;;;1.48;;
29402;SDS011;16382;59.942;30.472;2024-01-10T22:09:53;1.33;;;1.00;;
29402;SDS011;16382;59.942;30.472;2024-01-10T22:12:23;3.33;;;1.65;;
29402;SDS011;16382;59.942;30.472;2024-01-10T22:14:58;1.45;;;1.10;;
29402;SDS011;16382;59.942;30.472;2024-01-10T22:17:42;1.15;;;0.98;;
29402;SDS011;16382;59.942;30.472;2024-01-10T22:20:16;1.52;;;1.00;;
29402;SDS011;16382;59.942;30.472;2024-01-10T22:23:09;2.10;;;0.88;;
29402;SDS011;16382;59.942;30.472;2024-01-10T22:26:17;1.08;;;0.88;;
29402;SDS011;16382;59.942;30.472;2024-01-10T22:29:07;1.80;;;1.20;;
29402;SDS011;16382;59.942;30.472;2024-01-10T22:31:53;2.45;;;0.93;;
29402;SDS011;16382;59.942;30.472;2024-01-10T22:35:06;2.87;;;1.00;;
29402;SDS011;16382;59.942;30.472;2024-01-10T22:37:39;1.75;;;1.20;;
29402;SDS011;16382;59.942;30.472;2024-01-10T22:41:03;1.63;;;0.90;;
29402;SDS011;16382;59.942;30.472;2024-01-10T22:43:45;2.63;;;1.00;;
29402;SDS011;16382;59.942;30.472;2024-01-10T22:47:18;4.03;;;1.10;;
29402;SDS011;16382;59.942;30.472;2024-01-10T22:49:55;1.17;;;0.90;;
29402;SDS011;16382;59.942;30.472;2024-01-10T22:52:30;1.00;;;0.98;;
29402;SDS011;16382;59.942;30.472;2024-01-10T22:55:11;2.88;;;0.90;;